Ocean City (26N)
Ocean City, NJ
Field Elevation: 8
Lat: 39°15.81N  Long: 74°36.45W
CTAF/Unicom Freq: 122.7000
   
     For Weather-by-Phone, call (609) 398-0705
Weather Advisories
2022-09-29   19:44 Z
Altimeter 30.30" Hg
Wind 050° @ 9 KT
Gusts 15 KT
Visibility 10 SM
Ceiling CLR
Temperature 18° C (64° F)
Dewpoint 10° C (50° F)
Relative Humidity 58%
Density Altitude --
Condensation Altitude 4,200 feet
Wind and Runways
Indicated Runway = 06
Headwind = 9 kt
Crosswind = 2 kt
History
 
 
 
More Info
All DigiWx sites map
Weather Radar
NOAA Forecast
 
Airport IQ 5010
(HMIEM) Shock Trauma Ctr
(PN44) Upper Gwynedd Heliport
 
about DigiWx
 
FAA Disclaimer: The data displayed is for advisory purposes only and is not to be used for flight planning or operations. For official data, please call (609) 398-0705 to hear the current automated AWOS voice message.
  METAR 26N 291944Z AUTO 05009G15KT VIS 10 SM CLR 18/10 A3030